createdAt,value
2018-04-08T00:02:13.739Z,8.40
2018-04-08T00:04:47.527Z,8.30
2018-04-08T00:07:21.592Z,8.40
2018-04-08T00:09:55.951Z,8.40
2018-04-08T00:12:30.392Z,8.50
2018-04-08T00:15:04.477Z,8.50
2018-04-08T00:17:39.297Z,8.20
2018-04-08T00:20:13.754Z,8.10
2018-04-08T00:22:47.328Z,8.10
2018-04-08T00:25:21.260Z,8.10
2018-04-08T00:27:54.969Z,8.00
2018-04-08T00:30:28.746Z,8.10
2018-04-08T00:33:02.783Z,8.10
2018-04-08T00:35:36.919Z,7.90
2018-04-08T00:38:10.892Z,8.00
2018-04-08T00:40:44.498Z,8.00
2018-04-08T00:43:19.158Z,7.80
2018-04-08T00:45:53.540Z,7.60
2018-04-08T00:48:27.841Z,7.60
2018-04-08T00:51:02.299Z,7.50
2018-04-08T00:53:36.480Z,7.50
2018-04-08T00:56:11.714Z,7.60
2018-04-08T00:58:46.467Z,7.60
2018-04-08T01:01:20.353Z,7.70
2018-04-08T01:03:54.192Z,7.50
2018-04-08T01:06:28.033Z,7.60
2018-04-08T01:09:02.024Z,7.70
2018-04-08T01:11:35.674Z,7.60
2018-04-08T01:14:10.121Z,7.50
2018-04-08T01:16:43.996Z,7.50
2018-04-08T01:19:17.969Z,7.50
2018-04-08T01:21:52.726Z,7.50
2018-04-08T01:24:26.456Z,7.40
2018-04-08T01:27:01.318Z,7.50
2018-04-08T01:29:35.170Z,7.50
2018-04-08T01:32:08.977Z,7.40
2018-04-08T01:34:43.562Z,7.30
2018-04-08T01:37:18.127Z,7.30
2018-04-08T01:39:52.035Z,7.30
2018-04-08T01:42:25.828Z,7.30
2018-04-08T01:45:00.711Z,7.00
2018-04-08T01:47:34.482Z,7.10
2018-04-08T01:50:08.183Z,7.00
2018-04-08T01:52:42.066Z,6.90
2018-04-08T01:55:16.686Z,6.70
2018-04-08T01:57:51.745Z,6.60
2018-04-08T02:00:26.484Z,6.60
2018-04-08T02:03:01.948Z,6.70
2018-04-08T02:05:36.346Z,6.90
2018-04-08T02:08:10.567Z,6.80
2018-04-08T02:10:44.784Z,6.70
2018-04-08T02:13:18.964Z,6.70
2018-04-08T02:15:53.284Z,6.70
2018-04-08T02:18:28.030Z,6.50
2018-04-08T02:21:03.331Z,6.50
2018-04-08T02:23:36.831Z,6.50
2018-04-08T02:26:11.984Z,6.30
2018-04-08T02:28:46.700Z,6.10
2018-04-08T02:31:22.547Z,6.10
2018-04-08T02:33:56.380Z,6.10
2018-04-08T02:36:31.121Z,6.00
2018-04-08T02:39:06.045Z,6.10
2018-04-08T02:41:39.729Z,6.10
2018-04-08T02:44:14.550Z,6.20
2018-04-08T02:46:49.367Z,6.00
2018-04-08T02:49:24.295Z,6.00
2018-04-08T02:51:58.223Z,6.00
2018-04-08T02:54:32.233Z,6.30
2018-04-08T02:57:06.960Z,6.10
2018-04-08T02:59:41.289Z,6.10
2018-04-08T03:02:15.305Z,6.00
2018-04-08T03:04:49.082Z,5.90
2018-04-08T03:07:24.130Z,5.70
2018-04-08T03:09:59.258Z,5.70
2018-04-08T03:12:34.283Z,5.80
2018-04-08T03:15:08.924Z,5.70
2018-04-08T03:17:42.928Z,5.70
2018-04-08T03:20:16.707Z,5.80
2018-04-08T03:22:50.753Z,5.60
2018-04-08T03:25:25.786Z,5.30
2018-04-08T03:28:00.517Z,5.30
2018-04-08T03:30:35.328Z,5.30
2018-04-08T03:33:10.249Z,5.50
2018-04-08T03:35:44.263Z,5.40
2018-04-08T03:38:18.093Z,5.50
2018-04-08T03:40:51.967Z,5.30
2018-04-08T03:43:26.821Z,5.20
2018-04-08T03:46:02.264Z,5.20
2018-04-08T03:48:37.116Z,5.20
2018-04-08T03:51:12.315Z,5.10
2018-04-08T03:53:48.802Z,5.20
2018-04-08T03:56:23.400Z,5.20
2018-04-08T03:58:57.019Z,5.10
2018-04-08T04:01:31.013Z,5.30
2018-04-08T04:04:06.152Z,5.10
2018-04-08T04:06:41.090Z,5.10
2018-04-08T04:09:15.708Z,4.90
2018-04-08T04:11:49.722Z,4.90
2018-04-08T04:14:24.798Z,4.90
2018-04-08T04:16:59.676Z,4.90
2018-04-08T04:19:45.761Z,4.80
2018-04-08T04:22:31.352Z,4.90
2018-04-08T04:25:18.907Z,5.00
2018-04-08T04:27:53.470Z,5.00
2018-04-08T04:30:28.428Z,4.90
2018-04-08T04:33:03.090Z,4.90
2018-04-08T04:35:37.286Z,4.90
2018-04-08T04:38:11.395Z,5.10
2018-04-08T04:40:46.335Z,4.90
2018-04-08T04:43:20.528Z,4.90
2018-04-08T04:45:54.465Z,4.70
2018-04-08T04:48:29.699Z,4.50
2018-04-08T04:51:03.681Z,4.50
2018-04-08T04:53:38.134Z,4.60
2018-04-08T04:56:11.989Z,4.60
2018-04-08T04:58:46.748Z,4.70
2018-04-08T05:01:20.721Z,4.70
2018-04-08T05:03:56.507Z,4.80
2018-04-08T05:06:30.531Z,4.80
2018-04-08T05:09:04.409Z,4.90
2018-04-08T05:11:38.209Z,4.90
2018-04-08T05:14:13.038Z,4.90
2018-04-08T05:16:48.717Z,4.90
2018-04-08T05:19:24.646Z,4.90
2018-04-08T05:22:00.212Z,4.90
2018-04-08T05:24:35.536Z,4.80
2018-04-08T05:27:10.660Z,4.80
2018-04-08T05:29:45.227Z,4.80
2018-04-08T05:32:19.616Z,4.80
2018-04-08T05:34:54.960Z,5.00
2018-04-08T05:37:28.777Z,5.00
2018-04-08T05:40:02.352Z,5.10
2018-04-08T05:42:37.599Z,5.30
2018-04-08T05:45:11.298Z,5.30
2018-04-08T05:47:45.307Z,5.30
2018-04-08T05:50:19.020Z,5.40
2018-04-08T05:52:52.620Z,5.60
2018-04-08T05:55:28.154Z,5.80
2018-04-08T05:58:03.736Z,6.00
2018-04-08T06:00:39.351Z,5.90
2018-04-08T06:03:13.923Z,6.10
2018-04-08T06:05:49.125Z,6.20
2018-04-08T06:08:23.637Z,6.30
2018-04-08T06:10:57.649Z,6.30
2018-04-08T06:13:32.363Z,6.60
2018-04-08T06:16:08.212Z,6.70
2018-04-08T06:18:42.452Z,6.90
2018-04-08T06:21:17.576Z,7.00
2018-04-08T06:23:52.121Z,7.20
2018-04-08T06:26:27.126Z,7.20
2018-04-08T06:29:01.144Z,7.50
2018-04-08T06:31:36.905Z,7.80
2018-04-08T06:34:10.995Z,7.70
2018-04-08T06:36:44.996Z,7.90
2018-04-08T06:39:18.817Z,8.10
2018-04-08T06:41:52.616Z,8.30
2018-04-08T06:44:27.860Z,8.60
2018-04-08T06:47:02.504Z,8.80
2018-04-08T06:49:37.705Z,9.00
2018-04-08T06:52:12.125Z,9.10
2018-04-08T06:54:46.247Z,9.10
2018-04-08T06:57:20.539Z,9.30
2018-04-08T06:59:54.572Z,9.50
2018-04-08T07:02:28.792Z,9.70
2018-04-08T07:05:03.708Z,10.20
2018-04-08T07:07:39.168Z,10.60
2018-04-08T07:10:13.700Z,10.70
2018-04-08T07:12:48.386Z,11.00
2018-04-08T07:15:22.120Z,10.90
2018-04-08T07:17:56.042Z,11.20
2018-04-08T07:20:31.146Z,11.40
2018-04-08T07:23:05.066Z,11.70
2018-04-08T07:25:40.188Z,11.90
2018-04-08T07:28:14.408Z,12.00
2018-04-08T07:30:48.339Z,12.10
2018-04-08T07:33:21.923Z,12.10
2018-04-08T07:35:56.439Z,12.50
2018-04-08T07:38:31.060Z,13.00
2018-04-08T07:41:04.780Z,12.90
2018-04-08T07:43:40.219Z,14.00
2018-04-08T07:46:15.021Z,14.30
2018-04-08T07:48:50.150Z,14.50
2018-04-08T07:51:23.761Z,14.50
2018-04-08T07:53:59.532Z,14.90
2018-04-08T07:56:33.853Z,15.40
2018-04-08T07:59:08.881Z,15.30
2018-04-08T08:01:43.480Z,15.80
2018-04-08T08:04:17.254Z,15.70
2018-04-08T08:06:51.961Z,16.00
2018-04-08T08:09:25.796Z,16.00
2018-04-08T08:12:00.255Z,16.50
2018-04-08T08:14:34.790Z,17.10
2018-04-08T08:17:09.688Z,17.60
2018-04-08T08:19:43.297Z,17.60
2018-04-08T08:22:17.886Z,17.60
2018-04-08T08:24:52.016Z,17.60
2018-04-08T08:27:26.228Z,17.90
2018-04-08T08:30:00.347Z,17.80
2018-04-08T08:32:34.339Z,18.10
2018-04-08T08:35:09.096Z,18.00
2018-04-08T08:37:44.177Z,18.10
2018-04-08T08:40:17.846Z,18.10
2018-04-08T08:42:52.034Z,18.20
2018-04-08T08:45:27.412Z,18.80
2018-04-08T08:48:02.266Z,19.10
2018-04-08T08:50:36.344Z,19.10
2018-04-08T08:53:10.230Z,19.20
2018-04-08T08:55:45.860Z,20.10
2018-04-08T08:58:20.450Z,19.80
2018-04-08T09:00:55.223Z,20.20
2018-04-08T09:03:30.050Z,19.90
2018-04-08T09:06:04.555Z,19.90
2018-04-08T09:08:39.298Z,19.70
2018-04-08T09:11:14.640Z,19.90
2018-04-08T09:13:49.772Z,19.90
2018-04-08T09:16:23.782Z,19.90
2018-04-08T09:19:00.515Z,19.60
2018-04-08T09:21:40.192Z,20.10
2018-04-08T09:24:20.557Z,20.70
2018-04-08T09:26:55.076Z,20.90
2018-04-08T09:29:30.536Z,20.90
2018-04-08T09:32:05.954Z,21.30
2018-04-08T09:34:41.202Z,21.10
2018-04-08T09:37:15.854Z,21.50
2018-04-08T09:39:50.268Z,21.50
2018-04-08T09:42:24.183Z,21.90
2018-04-08T09:44:59.676Z,21.90
2018-04-08T09:47:33.654Z,21.90
2018-04-08T09:50:08.350Z,22.40
2018-04-08T09:52:42.773Z,22.50
2018-04-08T09:55:17.597Z,22.50
2018-04-08T09:58:07.565Z,22.60
2018-04-08T10:14:02.367Z,24.10
2018-04-08T10:16:37.351Z,24.10
2018-04-08T10:19:11.221Z,24.10
2018-04-08T10:21:46.701Z,24.50
2018-04-08T10:24:20.648Z,24.40
2018-04-08T10:26:54.559Z,24.90
2018-04-08T10:29:29.273Z,24.90
2018-04-08T10:32:03.700Z,25.10
2018-04-08T10:34:38.249Z,25.70
2018-04-08T10:37:12.203Z,25.70
2018-04-08T10:39:46.631Z,25.80
2018-04-08T10:42:20.176Z,25.80
2018-04-08T10:44:54.958Z,26.40
2018-04-08T10:47:28.970Z,26.40
2018-04-08T10:50:02.677Z,26.30
2018-04-08T10:52:36.991Z,26.00
2018-04-08T10:55:12.769Z,25.60
2018-04-08T10:57:47.055Z,26.10
2018-04-08T11:00:20.878Z,26.10
2018-04-08T11:02:54.667Z,26.70
2018-04-08T11:05:30.856Z,26.60
2018-04-08T11:08:05.167Z,26.90
2018-04-08T11:10:38.931Z,26.80
2018-04-08T11:13:13.136Z,27.20
2018-04-08T11:15:48.201Z,27.60
2018-04-08T11:18:22.318Z,27.60
2018-04-08T11:20:55.992Z,27.20
2018-04-08T11:23:30.400Z,27.50
2018-04-08T11:26:05.056Z,27.80
2018-04-08T11:28:40.342Z,28.30
2018-04-08T11:31:14.912Z,28.10
2018-04-08T11:33:49.589Z,28.70
2018-04-08T11:36:23.878Z,28.70
2018-04-08T11:38:59.165Z,29.00
2018-04-08T11:41:32.976Z,29.00
2018-04-08T11:44:07.625Z,29.00
2018-04-08T11:46:42.453Z,29.10
2018-04-08T11:49:17.081Z,29.10
2018-04-08T11:51:51.778Z,28.90
2018-04-08T11:54:25.473Z,28.80
2018-04-08T11:57:00.214Z,28.30
2018-04-08T11:59:34.112Z,29.10
2018-04-08T12:02:07.780Z,29.30
2018-04-08T12:04:41.352Z,29.60
2018-04-08T12:07:14.827Z,29.50
2018-04-08T12:09:48.709Z,29.50
2018-04-08T12:12:22.256Z,29.20
2018-04-08T12:14:57.193Z,29.40
2018-04-08T12:17:31.569Z,29.40
2018-04-08T12:20:06.817Z,30.70
2018-04-08T12:22:40.702Z,30.70
2018-04-08T12:25:15.330Z,30.60
2018-04-08T12:27:49.649Z,31.00
2018-04-08T12:30:23.211Z,30.90
2018-04-08T12:32:57.513Z,31.10
2018-04-08T12:35:31.872Z,31.20
2018-04-08T12:38:07.378Z,31.10
2018-04-08T12:40:41.854Z,31.20
2018-04-08T12:43:16.480Z,30.90
2018-04-08T12:45:50.964Z,30.70
2018-04-08T12:48:24.940Z,30.70
2018-04-08T12:50:59.601Z,30.70
2018-04-08T12:53:33.354Z,30.80
2018-04-08T12:56:07.105Z,31.40
2018-04-08T12:58:41.785Z,31.90
2018-04-08T13:01:15.396Z,31.90
2018-04-08T13:03:48.944Z,32.70
2018-04-08T13:06:22.627Z,33.30
2018-04-08T13:08:57.227Z,33.60
2018-04-08T13:11:31.852Z,33.50
2018-04-08T13:14:06.455Z,33.70
2018-04-08T13:16:40.924Z,33.70
2018-04-08T13:19:15.449Z,34.60
2018-04-08T13:21:49.064Z,34.60
2018-04-08T13:24:23.760Z,35.60
2018-04-08T13:26:57.530Z,35.50
2018-04-08T13:29:31.109Z,35.20
2018-04-08T13:32:05.419Z,36.10
2018-04-08T13:34:38.984Z,36.00
2018-04-08T13:37:13.236Z,35.90
2018-04-08T13:39:46.968Z,36.00
2018-04-08T13:42:22.062Z,36.90
2018-04-08T13:44:55.698Z,36.90
2018-04-08T13:47:29.208Z,36.90
2018-04-08T13:50:03.116Z,36.90
2018-04-08T13:52:37.781Z,36.70
2018-04-08T13:55:12.396Z,37.20
2018-04-08T13:57:46.728Z,37.10
2018-04-08T14:00:21.090Z,36.50
2018-04-08T14:02:54.557Z,36.40
2018-04-08T14:05:28.159Z,36.80
2018-04-08T14:08:01.725Z,36.50
2018-04-08T14:10:35.551Z,36.10
2018-04-08T14:13:09.906Z,36.10
2018-04-08T14:15:44.528Z,36.40
2018-04-08T14:18:18.198Z,36.40
2018-04-08T14:20:53.528Z,36.40
2018-04-08T14:23:27.407Z,36.30
2018-04-08T14:26:01.806Z,36.10
2018-04-08T14:28:36.173Z,36.80
2018-04-08T14:31:09.942Z,36.80
2018-04-08T14:33:43.580Z,37.50
2018-04-08T14:36:17.245Z,37.10
2018-04-08T14:38:51.100Z,37.00
2018-04-08T14:41:24.834Z,36.00
2018-04-08T14:43:59.543Z,36.80
2018-04-08T14:46:34.108Z,36.50
2018-04-08T14:49:08.644Z,36.50
2018-04-08T14:51:42.248Z,36.50
2018-04-08T14:54:16.113Z,37.30
2018-04-08T14:56:50.539Z,37.10
2018-04-08T14:59:25.139Z,36.60
2018-04-08T15:01:58.752Z,36.50
2018-04-08T15:04:32.609Z,36.50
2018-04-08T15:07:07.113Z,36.20
2018-04-08T15:09:41.408Z,36.40
2018-04-08T15:12:15.052Z,36.30
2018-04-08T15:14:48.745Z,35.10
2018-04-08T15:17:23.568Z,34.10
2018-04-08T15:19:57.265Z,34.10
2018-04-08T15:22:32.315Z,35.30
2018-04-08T15:25:06.017Z,35.30
2018-04-08T15:27:39.924Z,35.60
2018-04-08T15:30:13.692Z,35.30
2018-04-08T15:32:47.361Z,35.10
2018-04-08T15:35:20.855Z,34.80
2018-04-08T15:37:55.259Z,35.00
2018-04-08T15:40:29.094Z,35.00
2018-04-08T15:43:03.641Z,33.60
2018-04-08T15:45:37.562Z,33.50
2018-04-08T15:48:11.264Z,33.60
2018-04-08T15:50:44.921Z,34.50
2018-04-08T15:53:19.432Z,33.90
2018-04-08T15:55:53.156Z,33.90
2018-04-08T15:58:27.547Z,34.00
2018-04-08T16:01:02.177Z,34.20
2018-04-08T16:03:36.720Z,34.50
2018-04-08T16:06:10.325Z,34.40
2018-04-08T16:08:44.660Z,34.10
2018-04-08T16:11:19.057Z,33.50
2018-04-08T16:13:53.152Z,33.50
2018-04-08T16:16:28.022Z,31.40
2018-04-08T16:19:02.387Z,30.10
2018-04-08T16:21:36.220Z,30.10
2018-04-08T16:24:10.567Z,28.00
2018-04-08T16:26:44.896Z,27.20
2018-04-08T16:29:18.593Z,27.10
2018-04-08T16:31:53.084Z,26.30
2018-04-08T16:34:27.912Z,26.00
2018-04-08T16:37:02.325Z,25.70
2018-04-08T16:39:36.644Z,25.70
2018-04-08T16:42:10.384Z,25.70
2018-04-08T16:44:44.694Z,25.40
2018-04-08T16:47:18.311Z,25.40
2018-04-08T16:49:51.875Z,25.40
2018-04-08T16:52:25.805Z,25.00
2018-04-08T16:54:59.475Z,24.80
2018-04-08T16:57:33.042Z,24.60
2018-04-08T17:00:07.040Z,24.40
2018-04-08T17:02:40.694Z,24.40
2018-04-08T17:05:14.273Z,24.30
2018-04-08T17:07:48.744Z,24.30
2018-04-08T17:10:22.728Z,24.20
2018-04-08T17:12:56.389Z,24.00
2018-04-08T17:15:30.957Z,23.60
2018-04-08T17:18:05.402Z,23.50
2018-04-08T17:20:39.801Z,23.20
2018-04-08T17:23:13.537Z,23.20
2018-04-08T17:25:47.365Z,23.00
2018-04-08T17:28:20.900Z,22.70
2018-04-08T17:30:54.520Z,22.50
2018-04-08T17:33:28.296Z,22.40
2018-04-08T17:36:02.695Z,22.00
2018-04-08T17:38:36.386Z,22.00
2018-04-08T17:41:10.106Z,22.00
2018-04-08T17:43:44.572Z,21.50
2018-04-08T17:46:18.175Z,21.50
2018-04-08T17:48:52.046Z,21.30
2018-04-08T17:51:26.505Z,20.80
2018-04-08T17:54:00.252Z,20.70
2018-04-08T17:56:34.069Z,20.60
2018-04-08T17:59:07.562Z,20.40
2018-04-08T18:01:41.256Z,20.20
2018-04-08T18:04:14.828Z,20.00
2018-04-08T18:06:48.316Z,19.90
2018-04-08T18:09:22.603Z,19.60
2018-04-08T18:11:56.081Z,19.60
2018-04-08T18:14:29.585Z,19.30
2018-04-08T18:17:03.103Z,19.10
2018-04-08T18:19:36.614Z,18.90
2018-04-08T18:22:10.290Z,18.60
2018-04-08T18:24:43.899Z,18.50
2018-04-08T18:27:17.569Z,18.40
2018-04-08T18:29:51.208Z,18.10
2018-04-08T18:32:25.202Z,18.00
2018-04-08T18:34:58.692Z,18.00
2018-04-08T18:37:32.470Z,18.00
2018-04-08T18:40:06.189Z,18.00
2018-04-08T18:42:39.828Z,18.00
2018-04-08T18:45:13.548Z,18.20
2018-04-08T18:47:47.140Z,18.00
2018-04-08T18:50:21.526Z,18.00
2018-04-08T18:52:55.031Z,17.80
2018-04-08T18:55:29.276Z,17.70
2018-04-08T18:58:03.694Z,17.70
2018-04-08T19:00:37.498Z,17.60
2018-04-08T19:03:11.595Z,17.60
2018-04-08T19:05:46.012Z,17.60
2018-04-08T19:08:20.490Z,17.50
2018-04-08T19:10:54.115Z,17.50
2018-04-08T19:13:27.796Z,17.60
2018-04-08T19:16:02.320Z,17.40
2018-04-08T19:18:35.916Z,17.40
2018-04-08T19:21:10.323Z,17.30
2018-04-08T19:23:50.394Z,17.30
2018-04-08T19:26:24.186Z,17.20
2018-04-08T19:28:57.749Z,17.10
2018-04-08T19:31:31.542Z,17.00
2018-04-08T19:34:05.824Z,16.80
2018-04-08T19:36:39.540Z,16.80
2018-04-08T19:39:13.057Z,16.70
2018-04-08T19:41:47.506Z,16.70
2018-04-08T19:44:21.610Z,16.70
2018-04-08T19:46:55.144Z,16.70
2018-04-08T19:49:28.758Z,16.60
2018-04-08T19:52:02.513Z,16.40
2018-04-08T19:54:36.318Z,16.40
2018-04-08T19:57:10.026Z,16.30
2018-04-08T19:59:43.568Z,16.20
2018-04-08T20:02:18.089Z,16.10
2018-04-08T20:04:52.582Z,16.00
2018-04-08T20:07:26.978Z,16.00
2018-04-08T20:10:01.522Z,15.80
2018-04-08T20:12:35.188Z,15.80
2018-04-08T20:15:08.740Z,15.70
2018-04-08T20:17:43.108Z,15.60
2018-04-08T20:20:16.680Z,15.60
2018-04-08T20:22:51.290Z,15.60
2018-04-08T20:25:24.936Z,15.60
2018-04-08T20:27:58.528Z,15.50
2018-04-08T20:30:33.036Z,15.50
2018-04-08T20:33:06.592Z,15.40
2018-04-08T20:35:40.202Z,15.50
2018-04-08T20:38:15.178Z,15.40
2018-04-08T20:40:48.657Z,15.10
2018-04-08T20:43:22.254Z,15.00
2018-04-08T20:45:56.011Z,14.90
2018-04-08T20:48:30.569Z,14.90
2018-04-08T20:51:05.971Z,14.70
2018-04-08T20:53:42.004Z,14.70
2018-04-08T20:56:16.224Z,14.70
2018-04-08T20:58:52.501Z,14.70
2018-04-08T21:01:26.405Z,14.70
2018-04-08T21:04:01.597Z,14.60
2018-04-08T21:06:36.604Z,14.60
2018-04-08T21:09:10.153Z,14.50
2018-04-08T21:11:44.155Z,14.50
2018-04-08T21:14:18.009Z,14.60
2018-04-08T21:16:54.553Z,14.70
2018-04-08T21:19:29.029Z,14.50
2018-04-08T21:22:03.239Z,14.40
2018-04-08T21:24:37.767Z,14.60
2018-04-08T21:27:12.000Z,14.60
2018-04-08T21:29:45.796Z,14.60
2018-04-08T21:32:19.692Z,14.80
2018-04-08T21:34:53.633Z,14.80
2018-04-08T21:37:27.805Z,14.80
2018-04-08T21:40:02.240Z,14.80
2018-04-08T21:42:36.764Z,14.80
2018-04-08T21:45:10.612Z,14.80
2018-04-08T21:47:44.272Z,14.70
2018-04-08T21:50:17.977Z,14.60
2018-04-08T21:52:52.008Z,14.60
2018-04-08T21:55:25.885Z,14.50
2018-04-08T21:58:00.829Z,14.60
2018-04-08T22:00:35.360Z,14.50
2018-04-08T22:03:09.927Z,14.50
2018-04-08T22:05:44.806Z,14.40
2018-04-08T22:08:18.524Z,14.40
2018-04-08T22:10:53.428Z,14.30
2018-04-08T22:13:27.158Z,14.30
2018-04-08T22:16:01.254Z,14.20
2018-04-08T22:18:35.252Z,14.10
2018-04-08T22:21:09.335Z,14.10
2018-04-08T22:23:44.088Z,14.20
2018-04-08T22:26:18.262Z,14.20
2018-04-08T22:28:52.741Z,14.20
2018-04-08T22:31:27.153Z,14.20
2018-04-08T22:34:01.322Z,14.20
2018-04-08T22:36:35.695Z,14.10
2018-04-08T22:39:09.835Z,14.10
2018-04-08T22:41:43.804Z,13.90
2018-04-08T22:44:18.336Z,13.60
2018-04-08T22:46:52.401Z,13.50
2018-04-08T22:49:27.121Z,13.60
2018-04-08T22:52:01.488Z,13.60
2018-04-08T22:54:35.478Z,13.60
2018-04-08T22:57:09.919Z,13.50
2018-04-08T22:59:45.029Z,13.50
2018-04-08T23:02:19.862Z,13.40
2018-04-08T23:04:54.401Z,13.20
2018-04-08T23:07:29.019Z,13.20
2018-04-08T23:10:04.089Z,13.10
2018-04-08T23:12:38.844Z,12.90
2018-04-08T23:15:12.704Z,12.90
2018-04-08T23:17:46.780Z,12.80
2018-04-08T23:20:21.264Z,12.60
2018-04-08T23:22:55.415Z,12.60
2018-04-08T23:25:29.221Z,12.50
2018-04-08T23:28:08.961Z,12.70
2018-04-08T23:30:42.470Z,12.70
2018-04-08T23:33:16.233Z,13.10
2018-04-08T23:35:51.250Z,13.10
2018-04-08T23:38:25.414Z,13.10
2018-04-08T23:40:59.281Z,13.00
2018-04-08T23:43:33.417Z,12.80
2018-04-08T23:46:07.449Z,12.70
2018-04-08T23:48:41.758Z,12.60
2018-04-08T23:51:15.658Z,12.60
2018-04-08T23:53:49.906Z,12.80
2018-04-08T23:56:24.012Z,12.60
2018-04-08T23:58:58.474Z,12.20
